Time;durP1;ratioP1;P1;durP2;ratioP2;P2;SDS_P1;SDS_P2;PMS_P1;PMS_P2;Temp;Humidity;BMP_temperature;BMP_pressure;BME280_temperature;BME280_humidity;BME280_pressure;Samples;Min_cycle;Max_cycle;Signal;HPM_P1;HPM_P2
2022/05/16 00:01:46;;;;;;;6.03;3.02;;;;;;;;;;4343096;79;28636;-85
2022/05/16 00:07:47;;;;;;;6.58;3.10;;;;;;;;;;4334310;80;28547;-84
2022/05/16 00:13:48;;;;;;;7.03;3.27;;;;;;;;;;4342550;79;28531;-86
2022/05/16 00:19:48;;;;;;;5.10;3.10;;;;;;;;;;4311044;80;28547;-85
2022/05/16 00:25:49;;;;;;;5.17;2.52;;;;;;;;;;4337662;79;28517;-85
2022/05/16 00:31:51;;;;;;;7.15;2.80;;;;;;;;;;4339313;80;28591;-85
2022/05/16 00:37:52;;;;;;;6.92;3.33;;;;;;;;;;4344851;80;28506;-85
2022/05/16 00:43:59;;;;;;;5.42;2.70;;;;;;;;;;4348245;80;28466;-85
2022/05/16 00:49:57;;;;;;;6.70;3.05;;;;;;;;;;4344426;80;28541;-85
2022/05/16 00:55:58;;;;;;;5.67;3.15;;;;;;;;;;4347269;80;28524;-86
2022/05/16 01:08:22;;;;;;;6.53;3.30;;;;;;;;;;4311184;79;28456;-81
2022/05/16 01:14:39;;;;;;;5.40;3.17;;;;;;;;;;4338170;79;28582;-83
2022/05/16 01:20:45;;;;;;;5.60;3.05;;;;;;;;;;4335117;80;28497;-82
2022/05/16 01:26:46;;;;;;;6.73;3.47;;;;;;;;;;4330779;79;28564;-82
2022/05/16 01:32:48;;;;;;;10.18;3.98;;;;;;;;;;4339760;79;28541;-81
2022/05/16 01:38:49;;;;;;;7.03;3.75;;;;;;;;;;4339735;80;28537;-82
2022/05/16 01:44:50;;;;;;;6.87;3.33;;;;;;;;;;4345898;80;28563;-79
2022/05/16 01:50:53;;;;;;;7.15;3.42;;;;;;;;;;4336362;80;28554;-82
2022/05/16 01:56:54;;;;;;;6.95;3.90;;;;;;;;;;4302604;79;28526;-82
2022/05/16 02:02:54;;;;;;;7.75;4.35;;;;;;;;;;4324074;79;28600;-82
2022/05/16 02:08:55;;;;;;;8.40;4.10;;;;;;;;;;4323775;80;28559;-81
2022/05/16 02:14:56;;;;;;;7.95;4.00;;;;;;;;;;4339831;79;28617;-82
2022/05/16 02:27:19;;;;;;;8.43;3.75;;;;;;;;;;4319404;80;28591;-83
2022/05/16 02:33:20;;;;;;;7.30;4.05;;;;;;;;;;4336621;80;28506;-83
2022/05/16 02:39:21;;;;;;;8.45;4.30;;;;;;;;;;4346310;80;28510;-82
2022/05/16 02:45:24;;;;;;;6.42;4.10;;;;;;;;;;4334098;80;28542;-84
2022/05/16 02:51:24;;;;;;;8.18;4.40;;;;;;;;;;4291401;80;28602;-83
2022/05/16 02:57:25;;;;;;;9.93;4.40;;;;;;;;;;4311979;80;28510;-83
2022/05/16 03:03:26;;;;;;;6.17;3.67;;;;;;;;;;4334790;81;28533;-83
2022/05/16 03:09:28;;;;;;;8.33;4.00;;;;;;;;;;4317120;80;28520;-83
2022/05/16 03:15:30;;;;;;;7.75;4.53;;;;;;;;;;4301023;81;28572;-82
2022/05/16 03:21:31;;;;;;;11.83;4.58;;;;;;;;;;4337973;80;28537;-83
2022/05/16 03:27:32;;;;;;;8.73;4.53;;;;;;;;;;4338285;80;28550;-82
2022/05/16 03:33:33;;;;;;;7.47;3.83;;;;;;;;;;4337278;80;28547;-84
2022/05/16 03:45:53;;;;;;;8.70;4.03;;;;;;;;;;4321931;80;28556;-85
2022/05/16 03:51:54;;;;;;;8.35;4.00;;;;;;;;;;4339217;80;28593;-82
2022/05/16 03:57:55;;;;;;;7.40;4.05;;;;;;;;;;4337803;80;28545;-82
2022/05/16 04:03:56;;;;;;;7.03;4.53;;;;;;;;;;4331771;80;28453;-81
2022/05/16 04:09:57;;;;;;;7.95;4.78;;;;;;;;;;4340417;80;28534;-83
2022/05/16 04:15:58;;;;;;;9.03;3.92;;;;;;;;;;4332793;80;28546;-83
2022/05/16 04:21:59;;;;;;;8.73;4.25;;;;;;;;;;4333012;80;28524;-83
2022/05/16 04:27:59;;;;;;;7.78;4.03;;;;;;;;;;4339170;80;28565;-84
2022/05/16 04:34:00;;;;;;;8.00;4.60;;;;;;;;;;4320711;80;28539;-84
2022/05/16 04:40:03;;;;;;;7.95;4.30;;;;;;;;;;4332476;80;28529;-82
2022/05/16 04:46:05;;;;;;;7.30;4.10;;;;;;;;;;4337567;80;28525;-82
2022/05/16 04:52:06;;;;;;;8.13;3.77;;;;;;;;;;4330725;80;28513;-81
2022/05/16 04:58:07;;;;;;;6.70;3.80;;;;;;;;;;4308849;80;28547;-80
2022/05/16 05:04:08;;;;;;;7.25;3.70;;;;;;;;;;4306746;80;28556;-83
2022/05/16 05:16:30;;;;;;;8.45;3.77;;;;;;;;;;4302508;81;28588;-81
2022/05/16 05:22:31;;;;;;;7.67;3.72;;;;;;;;;;4322480;80;28522;-80
2022/05/16 05:28:33;;;;;;;5.78;3.30;;;;;;;;;;4336062;80;28541;-80
2022/05/16 05:34:36;;;;;;;7.00;3.45;;;;;;;;;;4342678;80;28529;-78
2022/05/16 05:40:37;;;;;;;7.65;3.30;;;;;;;;;;4336295;80;28517;-76
2022/05/16 05:46:39;;;;;;;8.35;3.90;;;;;;;;;;4348049;80;28536;-77
2022/05/16 05:52:40;;;;;;;9.33;3.83;;;;;;;;;;4322979;80;28570;-79
2022/05/16 05:58:42;;;;;;;7.85;4.10;;;;;;;;;;4319579;80;28580;-78
2022/05/16 06:04:43;;;;;;;9.10;4.25;;;;;;;;;;4310350;80;28500;-78
2022/05/16 06:10:44;;;;;;;10.53;3.87;;;;;;;;;;4320299;80;28533;-77
2022/05/16 06:16:45;;;;;;;10.32;3.83;;;;;;;;;;4277977;80;28557;-77
2022/05/16 06:22:46;;;;;;;12.07;4.17;;;;;;;;;;4340181;80;28521;-78
2022/05/16 06:28:47;;;;;;;7.10;4.03;;;;;;;;;;4348217;80;28501;-78
2022/05/16 06:34:48;;;;;;;8.93;4.08;;;;;;;;;;4336763;80;28529;-77
2022/05/16 06:40:49;;;;;;;10.05;4.12;;;;;;;;;;4354511;80;28513;-77
2022/05/16 06:46:50;;;;;;;7.42;3.92;;;;;;;;;;4346953;80;28535;-77
2022/05/16 06:52:52;;;;;;;9.75;3.87;;;;;;;;;;4349059;80;28533;-78
2022/05/16 06:58:53;;;;;;;7.90;3.67;;;;;;;;;;4332615;80;28516;-77
2022/05/16 07:04:54;;;;;;;8.13;3.58;;;;;;;;;;4348801;80;28485;-77
2022/05/16 07:10:55;;;;;;;7.12;3.35;;;;;;;;;;4331380;80;28553;-77
2022/05/16 07:16:56;;;;;;;7.97;3.27;;;;;;;;;;4331831;80;28545;-77
2022/05/16 07:22:58;;;;;;;7.67;3.62;;;;;;;;;;4358471;79;28536;-76
2022/05/16 07:28:59;;;;;;;6.78;3.15;;;;;;;;;;4353486;80;28549;-77
2022/05/16 07:35:01;;;;;;;5.53;2.30;;;;;;;;;;4326608;79;28529;-76
2022/05/16 07:41:02;;;;;;;6.22;2.90;;;;;;;;;;4298143;80;28490;-77
2022/05/16 07:47:03;;;;;;;7.58;2.62;;;;;;;;;;4316941;80;28648;-78
2022/05/16 07:53:13;;;;;;;6.97;1.80;;;;;;;;;;4283949;79;28552;-79
2022/05/16 07:59:16;;;;;;;4.58;1.80;;;;;;;;;;4294753;79;28490;-78
2022/05/16 08:05:17;;;;;;;3.87;1.40;;;;;;;;;;4318109;80;28584;-78
2022/05/16 08:11:18;;;;;;;3.65;1.20;;;;;;;;;;4333430;79;28508;-77
2022/05/16 08:17:19;;;;;;;4.37;1.55;;;;;;;;;;4310055;80;28535;-78
2022/05/16 08:23:22;;;;;;;3.33;1.40;;;;;;;;;;4345030;80;28524;-78
2022/05/16 08:29:23;;;;;;;4.42;1.40;;;;;;;;;;4346989;80;28522;-78
2022/05/16 08:35:24;;;;;;;3.15;1.30;;;;;;;;;;4333399;80;28512;-78
2022/05/16 08:41:29;;;;;;;4.40;2.20;;;;;;;;;;4340128;80;28517;-78
2022/05/16 08:47:47;;;;;;;3.02;1.40;;;;;;;;;;4246175;81;28549;-77
2022/05/16 08:53:50;;;;;;;2.33;1.20;;;;;;;;;;4312918;80;28482;-78
2022/05/16 08:59:53;;;;;;;4.45;1.30;;;;;;;;;;4306052;80;28519;-77
2022/05/16 09:05:56;;;;;;;4.03;2.62;;;;;;;;;;4283738;80;28506;-77
2022/05/16 09:12:05;;;;;;;4.47;1.62;;;;;;;;;;4285825;81;28502;-78
2022/05/16 09:18:07;;;;;;;5.62;1.22;;;;;;;;;;4315243;80;28639;-77
2022/05/16 09:24:10;;;;;;;5.05;0.93;;;;;;;;;;4335220;80;28533;-77
2022/05/16 09:30:13;;;;;;;2.72;0.98;;;;;;;;;;4335523;81;28576;-80
2022/05/16 09:36:15;;;;;;;2.65;1.10;;;;;;;;;;4306786;80;28530;-78
2022/05/16 09:42:17;;;;;;;5.55;1.10;;;;;;;;;;4322778;80;28521;-78
2022/05/16 09:48:20;;;;;;;3.30;1.35;;;;;;;;;;4347356;80;28541;-78
2022/05/16 09:54:26;;;;;;;2.47;1.20;;;;;;;;;;4330699;80;28595;-78
2022/05/16 10:00:32;;;;;;;4.60;1.10;;;;;;;;;;4323976;80;28567;-79
2022/05/16 10:06:35;;;;;;;3.13;1.40;;;;;;;;;;4317230;80;28576;-79
2022/05/16 10:12:36;;;;;;;3.60;1.20;;;;;;;;;;4307352;80;28478;-80
2022/05/16 10:18:42;;;;;;;3.02;1.50;;;;;;;;;;4331526;80;28522;-79
2022/05/16 10:24:45;;;;;;;2.80;1.10;;;;;;;;;;4338133;80;28529;-78
2022/05/16 10:37:07;;;;;;;4.33;1.27;;;;;;;;;;4333523;80;28505;-79
2022/05/16 10:43:19;;;;;;;3.27;1.30;;;;;;;;;;4325130;80;28512;-78
2022/05/16 10:49:21;;;;;;;6.00;1.40;;;;;;;;;;4330111;80;28505;-78
2022/05/16 10:55:23;;;;;;;5.40;1.95;;;;;;;;;;4331918;80;28522;-78
2022/05/16 11:01:38;;;;;;;3.58;1.40;;;;;;;;;;4323448;80;28545;-80
2022/05/16 11:07:41;;;;;;;6.30;1.62;;;;;;;;;;4326865;80;28546;-78
2022/05/16 11:13:44;;;;;;;4.92;1.35;;;;;;;;;;4323416;80;28558;-79
2022/05/16 11:19:53;;;;;;;2.70;1.30;;;;;;;;;;4321387;80;28553;-79
2022/05/16 11:25:55;;;;;;;3.60;1.40;;;;;;;;;;4333604;80;28635;-79
2022/05/16 11:32:13;;;;;;;3.50;1.50;;;;;;;;;;4334012;80;28518;-79
2022/05/16 11:38:22;;;;;;;3.00;1.57;;;;;;;;;;4335788;80;28550;-79
2022/05/16 11:44:34;;;;;;;4.05;1.45;;;;;;;;;;4336658;80;28617;-79
2022/05/16 11:50:52;;;;;;;4.70;1.40;;;;;;;;;;4335666;80;28620;-77
2022/05/16 12:03:17;;;;;;;3.62;1.35;;;;;;;;;;4286704;80;28558;-79
2022/05/16 12:09:23;;;;;;;3.20;1.50;;;;;;;;;;4261058;81;28553;-78
2022/05/16 12:15:26;;;;;;;4.25;1.90;;;;;;;;;;4321501;80;28577;-78
2022/05/16 12:21:32;;;;;;;4.28;1.80;;;;;;;;;;4382836;79;28540;-78
2022/05/16 12:27:44;;;;;;;3.97;1.90;;;;;;;;;;4422262;79;28497;-79
2022/05/16 12:33:47;;;;;;;3.20;1.60;;;;;;;;;;4422174;79;28545;-79
2022/05/16 12:39:53;;;;;;;5.85;1.90;;;;;;;;;;4412770;77;28561;-77
2022/05/16 12:45:56;;;;;;;4.22;1.57;;;;;;;;;;4426551;79;28572;-79
2022/05/16 12:52:16;;;;;;;4.47;1.50;;;;;;;;;;4374443;80;28548;-78
2022/05/16 12:58:22;;;;;;;5.67;2.10;;;;;;;;;;4343261;80;28549;-78
2022/05/16 13:04:34;;;;;;;6.37;1.70;;;;;;;;;;4330921;80;28601;-79
2022/05/16 13:10:52;;;;;;;3.72;1.57;;;;;;;;;;4306890;80;28537;-79
2022/05/16 13:16:55;;;;;;;3.58;1.90;;;;;;;;;;4320974;80;28564;-79
2022/05/16 13:22:56;;;;;;;3.55;1.60;;;;;;;;;;4383113;80;28543;-79
2022/05/16 13:35:28;;;;;;;4.45;1.72;;;;;;;;;;4402631;79;28579;-78
2022/05/16 13:41:29;;;;;;;4.90;1.80;;;;;;;;;;4397875;79;28525;-79
2022/05/16 13:47:32;;;;;;;3.22;1.62;;;;;;;;;;4398358;79;28555;-79
2022/05/16 13:53:33;;;;;;;4.60;1.60;;;;;;;;;;4392171;79;28455;-79
2022/05/16 13:59:35;;;;;;;3.70;1.65;;;;;;;;;;4380770;80;28531;-79
2022/05/16 14:05:41;;;;;;;4.33;2.22;;;;;;;;;;4407395;79;28474;-78
2022/05/16 14:11:43;;;;;;;4.33;2.17;;;;;;;;;;4400006;79;28558;-79
2022/05/16 14:17:45;;;;;;;4.30;1.95;;;;;;;;;;4344626;80;28538;-77
2022/05/16 14:23:58;;;;;;;6.10;1.95;;;;;;;;;;4278369;80;28540;-78
2022/05/16 14:30:00;;;;;;;7.17;2.45;;;;;;;;;;4327165;80;28528;-78
2022/05/16 14:36:06;;;;;;;3.40;1.80;;;;;;;;;;4328535;80;28582;-79
2022/05/16 14:42:12;;;;;;;6.40;2.40;;;;;;;;;;4348725;80;28934;-79
2022/05/16 14:48:13;;;;;;;4.58;2.20;;;;;;;;;;4353650;80;28505;-79
2022/05/16 14:54:22;;;;;;;8.20;2.45;;;;;;;;;;4347590;80;28524;-80
2022/05/16 15:06:43;;;;;;;6.97;2.55;;;;;;;;;;4329801;80;28544;-80
2022/05/16 15:12:44;;;;;;;7.75;2.12;;;;;;;;;;4336670;80;28556;-80
2022/05/16 15:18:44;;;;;;;3.92;2.15;;;;;;;;;;4350388;80;28507;-79
2022/05/16 15:24:54;;;;;;;4.42;2.12;;;;;;;;;;4269183;81;28544;-79
2022/05/16 15:30:55;;;;;;;4.22;1.77;;;;;;;;;;4339632;80;28611;-80
2022/05/16 15:36:56;;;;;;;7.40;1.77;;;;;;;;;;4346184;80;28559;-80
2022/05/16 15:42:57;;;;;;;4.65;2.00;;;;;;;;;;4340518;80;28533;-80
2022/05/16 15:48:59;;;;;;;6.28;2.17;;;;;;;;;;4338601;80;28561;-79
2022/05/16 15:55:00;;;;;;;6.17;1.87;;;;;;;;;;4337536;80;28582;-79
2022/05/16 16:01:01;;;;;;;3.12;1.55;;;;;;;;;;4336668;80;28487;-80
2022/05/16 16:13:25;;;;;;;5.28;2.10;;;;;;;;;;4346207;80;28531;-79
2022/05/16 16:19:27;;;;;;;5.80;1.90;;;;;;;;;;4331383;80;28529;-79
2022/05/16 16:25:34;;;;;;;5.45;2.08;;;;;;;;;;4300069;82;28591;-80
2022/05/16 16:31:32;;;;;;;5.53;2.30;;;;;;;;;;4295779;82;28591;-80
2022/05/16 16:37:33;;;;;;;6.72;1.90;;;;;;;;;;4279273;82;28515;-80
2022/05/16 16:43:41;;;;;;;4.65;1.77;;;;;;;;;;4280976;82;28566;-81
2022/05/16 16:49:42;;;;;;;5.12;1.95;;;;;;;;;;4294785;82;28513;-80
2022/05/16 17:02:05;;;;;;;3.47;1.60;;;;;;;;;;4296180;82;28535;-80
2022/05/16 17:08:10;;;;;;;2.92;1.40;;;;;;;;;;4293301;82;28525;-81
2022/05/16 17:14:11;;;;;;;3.90;1.35;;;;;;;;;;4299314;82;28634;-82
2022/05/16 17:20:12;;;;;;;4.80;1.30;;;;;;;;;;4276453;82;28503;-79
2022/05/16 17:26:13;;;;;;;4.10;1.30;;;;;;;;;;4288192;82;28573;-79
2022/05/16 17:32:15;;;;;;;7.40;1.50;;;;;;;;;;4289661;82;28532;-78
2022/05/16 17:38:16;;;;;;;3.80;1.52;;;;;;;;;;4268943;82;28550;-76
2022/05/16 17:44:21;;;;;;;4.25;1.40;;;;;;;;;;4294307;82;28468;-76
2022/05/16 17:50:22;;;;;;;4.33;1.42;;;;;;;;;;4274808;81;28529;-77
2022/05/16 17:56:23;;;;;;;5.58;1.45;;;;;;;;;;4290208;82;28525;-77
2022/05/16 18:02:25;;;;;;;5.28;1.70;;;;;;;;;;4291805;82;28527;-76
2022/05/16 18:08:26;;;;;;;4.75;1.40;;;;;;;;;;4279406;82;28527;-75
2022/05/16 18:14:28;;;;;;;6.15;1.75;;;;;;;;;;4338065;80;28529;-78
2022/05/16 18:20:29;;;;;;;5.25;1.62;;;;;;;;;;4314707;80;28560;-81
2022/05/16 18:26:30;;;;;;;6.17;1.60;;;;;;;;;;4353238;80;28520;-80
2022/05/16 18:32:32;;;;;;;5.90;1.62;;;;;;;;;;4379920;80;28525;-78
2022/05/16 18:38:33;;;;;;;3.67;1.67;;;;;;;;;;4363845;80;28525;-79
2022/05/16 18:50:56;;;;;;;5.70;2.22;;;;;;;;;;4372852;80;28527;-79
2022/05/16 18:56:57;;;;;;;7.28;2.17;;;;;;;;;;4364669;80;28532;-76
2022/05/16 19:02:58;;;;;;;14.50;2.40;;;;;;;;;;4342851;80;28610;-80
2022/05/16 19:08:59;;;;;;;12.90;2.35;;;;;;;;;;4379069;80;28506;-76
2022/05/16 19:15:00;;;;;;;7.97;2.35;;;;;;;;;;4375197;80;28625;-78
2022/05/16 19:21:03;;;;;;;12.23;3.15;;;;;;;;;;4381087;80;28506;-77
2022/05/16 19:27:05;;;;;;;8.45;3.35;;;;;;;;;;4344209;81;28578;-77
2022/05/16 19:33:05;;;;;;;8.70;2.50;;;;;;;;;;4351762;81;28540;-74
2022/05/16 19:39:06;;;;;;;15.48;2.80;;;;;;;;;;4341687;80;28577;-76
2022/05/16 19:45:08;;;;;;;6.62;2.95;;;;;;;;;;4296591;81;28575;-77
2022/05/16 19:51:09;;;;;;;9.08;3.27;;;;;;;;;;4311803;80;29564;-76
2022/05/16 19:57:11;;;;;;;6.35;2.80;;;;;;;;;;4321210;80;28557;-78
2022/05/16 20:03:15;;;;;;;8.48;2.87;;;;;;;;;;4339512;80;28523;-77
2022/05/16 20:09:17;;;;;;;7.45;2.85;;;;;;;;;;4358167;80;28518;-75
2022/05/16 20:15:18;;;;;;;8.75;2.70;;;;;;;;;;4309093;80;28541;-78
2022/05/16 20:21:19;;;;;;;5.60;2.50;;;;;;;;;;4327677;80;28542;-78
2022/05/16 20:27:20;;;;;;;6.60;2.80;;;;;;;;;;4354792;80;28519;-78
2022/05/16 20:33:22;;;;;;;8.43;2.85;;;;;;;;;;4337317;80;28545;-78
2022/05/16 20:39:23;;;;;;;13.35;4.58;;;;;;;;;;4348982;80;28570;-78
2022/05/16 20:45:25;;;;;;;7.67;2.67;;;;;;;;;;4392842;79;28508;-78
2022/05/16 20:51:26;;;;;;;6.90;2.67;;;;;;;;;;4391765;79;28523;-78
2022/05/16 20:57:27;;;;;;;6.83;2.92;;;;;;;;;;4359129;80;28599;-77
2022/05/16 21:03:28;;;;;;;6.78;3.05;;;;;;;;;;4343046;80;28509;-77
2022/05/16 21:09:29;;;;;;;11.00;3.45;;;;;;;;;;4425088;79;29018;-78
2022/05/16 21:15:29;;;;;;;7.37;3.52;;;;;;;;;;4341403;80;28528;-77
2022/05/16 21:21:30;;;;;;;9.40;3.70;;;;;;;;;;4428978;79;28496;-77
2022/05/16 21:27:31;;;;;;;9.65;3.52;;;;;;;;;;4379515;79;28532;-78
2022/05/16 21:33:32;;;;;;;9.68;3.55;;;;;;;;;;4360898;79;28535;-77
2022/05/16 21:39:33;;;;;;;8.30;3.47;;;;;;;;;;4358182;79;28533;-76
2022/05/16 21:45:34;;;;;;;6.97;3.70;;;;;;;;;;4368120;79;28524;-78
2022/05/16 21:51:35;;;;;;;8.58;3.37;;;;;;;;;;4356968;79;28529;-78
2022/05/16 21:57:36;;;;;;;9.60;3.65;;;;;;;;;;4376442;79;28451;-77
2022/05/16 22:03:37;;;;;;;9.40;3.35;;;;;;;;;;4369898;79;28488;-76
2022/05/16 22:09:38;;;;;;;7.10;3.80;;;;;;;;;;4275883;80;28519;-78
2022/05/16 22:15:39;;;;;;;8.75;3.90;;;;;;;;;;4221716;81;28551;-78
2022/05/16 22:21:41;;;;;;;9.18;4.22;;;;;;;;;;4370865;79;28563;-77
2022/05/16 22:27:43;;;;;;;10.93;4.00;;;;;;;;;;4401978;79;28521;-76
2022/05/16 22:33:44;;;;;;;8.43;4.00;;;;;;;;;;4377553;80;28557;-77
2022/05/16 22:39:44;;;;;;;8.73;4.25;;;;;;;;;;4317236;80;28533;-76
2022/05/16 22:45:45;;;;;;;7.87;4.22;;;;;;;;;;4307498;80;28498;-77
2022/05/16 22:51:46;;;;;;;8.93;4.10;;;;;;;;;;4305259;80;28525;-77
2022/05/16 22:57:48;;;;;;;7.90;3.90;;;;;;;;;;4306153;80;28546;-78
2022/05/16 23:03:49;;;;;;;11.05;4.90;;;;;;;;;;4304051;80;28509;-77
2022/05/16 23:09:50;;;;;;;8.45;3.87;;;;;;;;;;4299450;80;28549;-78
2022/05/16 23:15:53;;;;;;;7.72;3.47;;;;;;;;;;4296170;80;28589;-77
2022/05/16 23:21:54;;;;;;;6.90;3.25;;;;;;;;;;4312412;80;28561;-78
2022/05/16 23:27:54;;;;;;;7.00;3.27;;;;;;;;;;4288123;80;28521;-78
2022/05/16 23:33:55;;;;;;;9.50;3.55;;;;;;;;;;4256548;80;28519;-78
2022/05/16 23:39:56;;;;;;;9.10;3.37;;;;;;;;;;4259792;80;28500;-77
2022/05/16 23:45:57;;;;;;;6.42;3.22;;;;;;;;;;4295204;80;28546;-78
2022/05/16 23:51:58;;;;;;;7.53;3.90;;;;;;;;;;4271737;80;28547;-76
2022/05/16 23:58:00;;;;;;;7.90;3.40;;;;;;;;;;4268354;80;28535;-77
